sensor_id;sensor_type;location;lat;lon;timestamp;P1;durP1;ratioP1;P2;durP2;ratioP2
25443;SDS011;13368;52.346;4.678;2023-06-10T00:00:00;2.1;;;1.5;;
25443;SDS011;13368;52.346;4.678;2023-06-10T00:05:00;2.3;;;1.6;;
25443;SDS011;13368;52.346;4.678;2023-06-10T00:10:00;1.9;;;1.7;;
25443;SDS011;13368;52.346;4.678;2023-06-10T00:15:00;2.1;;;1.8;;
25443;SDS011;13368;52.346;4.678;2023-06-10T00:20:00;2.4;;;2.0;;
25443;SDS011;13368;52.346;4.678;2023-06-10T00:25:00;1.5;;;1.3;;
25443;SDS011;13368;52.346;4.678;2023-06-10T00:30:00;3.7;;;1.7;;
25443;SDS011;13368;52.346;4.678;2023-06-10T00:35:00;2.8;;;1.5;;
25443;SDS011;13368;52.346;4.678;2023-06-10T00:40:00;4.9;;;2.1;;
25443;SDS011;13368;52.346;4.678;2023-06-10T00:45:00;2.3;;;1.9;;
25443;SDS011;13368;52.346;4.678;2023-06-10T00:50:00;2.4;;;1.4;;
25443;SDS011;13368;52.346;4.678;2023-06-10T00:55:00;2.0;;;1.4;;
25443;SDS011;13368;52.346;4.678;2023-06-10T01:00:00;3.3;;;1.9;;
25443;SDS011;13368;52.346;4.678;2023-06-10T01:05:00;2.4;;;1.8;;
25443;SDS011;13368;52.346;4.678;2023-06-10T01:10:01;6.3;;;1.5;;
25443;SDS011;13368;52.346;4.678;2023-06-10T01:15:00;2.3;;;1.6;;
25443;SDS011;13368;52.346;4.678;2023-06-10T01:20:00;1.6;;;1.5;;
25443;SDS011;13368;52.346;4.678;2023-06-10T01:25:00;1.3;;;1.1;;
25443;SDS011;13368;52.346;4.678;2023-06-10T01:30:02;2.5;;;2.0;;
25443;SDS011;13368;52.346;4.678;2023-06-10T01:35:00;1.9;;;1.4;;
25443;SDS011;13368;52.346;4.678;2023-06-10T01:40:00;1.9;;;1.4;;
25443;SDS011;13368;52.346;4.678;2023-06-10T01:45:00;2.6;;;2.0;;
25443;SDS011;13368;52.346;4.678;2023-06-10T01:50:00;2.1;;;1.8;;
25443;SDS011;13368;52.346;4.678;2023-06-10T01:55:00;1.9;;;1.4;;
25443;SDS011;13368;52.346;4.678;2023-06-10T02:00:00;2.4;;;1.5;;
25443;SDS011;13368;52.346;4.678;2023-06-10T02:05:00;2.7;;;1.7;;
25443;SDS011;13368;52.346;4.678;2023-06-10T02:10:00;3.3;;;1.6;;
25443;SDS011;13368;52.346;4.678;2023-06-10T02:15:00;1.8;;;1.5;;
25443;SDS011;13368;52.346;4.678;2023-06-10T02:20:00;2.0;;;1.6;;
25443;SDS011;13368;52.346;4.678;2023-06-10T02:25:00;1.6;;;1.5;;
25443;SDS011;13368;52.346;4.678;2023-06-10T02:30:00;3.1;;;1.6;;
25443;SDS011;13368;52.346;4.678;2023-06-10T02:35:00;4.2;;;1.4;;
25443;SDS011;13368;52.346;4.678;2023-06-10T02:40:00;2.3;;;1.5;;
25443;SDS011;13368;52.346;4.678;2023-06-10T02:45:00;1.7;;;1.3;;
25443;SDS011;13368;52.346;4.678;2023-06-10T02:50:00;4.1;;;1.5;;
25443;SDS011;13368;52.346;4.678;2023-06-10T02:55:00;2.0;;;1.6;;
25443;SDS011;13368;52.346;4.678;2023-06-10T03:00:00;2.0;;;1.5;;
25443;SDS011;13368;52.346;4.678;2023-06-10T03:05:00;1.7;;;1.6;;
25443;SDS011;13368;52.346;4.678;2023-06-10T03:10:00;2.6;;;1.8;;
25443;SDS011;13368;52.346;4.678;2023-06-10T03:15:00;1.7;;;1.6;;
25443;SDS011;13368;52.346;4.678;2023-06-10T03:20:00;1.4;;;1.3;;
25443;SDS011;13368;52.346;4.678;2023-06-10T03:25:00;2.5;;;1.4;;
25443;SDS011;13368;52.346;4.678;2023-06-10T03:30:00;2.6;;;1.5;;
25443;SDS011;13368;52.346;4.678;2023-06-10T03:35:00;2.4;;;1.4;;
25443;SDS011;13368;52.346;4.678;2023-06-10T03:40:00;3.3;;;1.5;;
25443;SDS011;13368;52.346;4.678;2023-06-10T03:45:00;1.5;;;1.4;;
25443;SDS011;13368;52.346;4.678;2023-06-10T03:50:00;1.7;;;1.6;;
25443;SDS011;13368;52.346;4.678;2023-06-10T03:55:00;1.5;;;1.3;;
25443;SDS011;13368;52.346;4.678;2023-06-10T04:00:00;1.9;;;1.7;;
25443;SDS011;13368;52.346;4.678;2023-06-10T04:05:00;2.2;;;2.0;;
25443;SDS011;13368;52.346;4.678;2023-06-10T04:10:00;3.1;;;1.6;;
25443;SDS011;13368;52.346;4.678;2023-06-10T04:15:00;2.1;;;1.8;;
25443;SDS011;13368;52.346;4.678;2023-06-10T04:20:00;1.9;;;1.4;;
25443;SDS011;13368;52.346;4.678;2023-06-10T04:25:00;1.3;;;1.2;;
25443;SDS011;13368;52.346;4.678;2023-06-10T04:30:00;3.8;;;1.8;;
25443;SDS011;13368;52.346;4.678;2023-06-10T04:35:00;1.8;;;1.6;;
25443;SDS011;13368;52.346;4.678;2023-06-10T04:40:00;2.0;;;1.9;;
25443;SDS011;13368;52.346;4.678;2023-06-10T04:45:00;5.7;;;1.8;;
25443;SDS011;13368;52.346;4.678;2023-06-10T04:50:00;1.7;;;1.4;;
25443;SDS011;13368;52.346;4.678;2023-06-10T04:55:00;2.0;;;1.8;;
25443;SDS011;13368;52.346;4.678;2023-06-10T05:00:00;1.2;;;1.1;;
25443;SDS011;13368;52.346;4.678;2023-06-10T05:05:00;2.1;;;1.5;;
25443;SDS011;13368;52.346;4.678;2023-06-10T05:10:00;1.1;;;1.1;;
25443;SDS011;13368;52.346;4.678;2023-06-10T05:15:00;2.0;;;1.6;;
25443;SDS011;13368;52.346;4.678;2023-06-10T05:20:00;1.7;;;1.5;;
25443;SDS011;13368;52.346;4.678;2023-06-10T05:25:00;2.5;;;1.7;;
25443;SDS011;13368;52.346;4.678;2023-06-10T05:30:00;2.5;;;1.5;;
25443;SDS011;13368;52.346;4.678;2023-06-10T05:35:00;1.8;;;1.6;;
25443;SDS011;13368;52.346;4.678;2023-06-10T05:40:00;5.8;;;1.6;;
25443;SDS011;13368;52.346;4.678;2023-06-10T05:45:00;1.5;;;1.4;;
25443;SDS011;13368;52.346;4.678;2023-06-10T05:50:00;1.4;;;1.3;;
25443;SDS011;13368;52.346;4.678;2023-06-10T05:55:00;3.6;;;1.9;;
25443;SDS011;13368;52.346;4.678;2023-06-10T06:00:00;1.7;;;1.6;;
25443;SDS011;13368;52.346;4.678;2023-06-10T06:05:00;1.5;;;1.4;;
25443;SDS011;13368;52.346;4.678;2023-06-10T06:10:00;1.4;;;1.3;;
25443;SDS011;13368;52.346;4.678;2023-06-10T06:15:00;1.9;;;1.7;;
25443;SDS011;13368;52.346;4.678;2023-06-10T06:20:00;2.1;;;1.5;;
25443;SDS011;13368;52.346;4.678;2023-06-10T06:25:00;1.5;;;1.4;;
25443;SDS011;13368;52.346;4.678;2023-06-10T06:30:00;2.3;;;1.9;;
25443;SDS011;13368;52.346;4.678;2023-06-10T06:35:00;2.6;;;1.8;;
25443;SDS011;13368;52.346;4.678;2023-06-10T06:40:00;2.2;;;1.4;;
25443;SDS011;13368;52.346;4.678;2023-06-10T06:45:00;2.5;;;1.7;;
25443;SDS011;13368;52.346;4.678;2023-06-10T06:50:00;5.0;;;2.3;;
25443;SDS011;13368;52.346;4.678;2023-06-10T06:55:00;2.1;;;1.7;;
25443;SDS011;13368;52.346;4.678;2023-06-10T07:00:00;3.2;;;1.3;;
25443;SDS011;13368;52.346;4.678;2023-06-10T07:05:00;2.6;;;2.3;;
25443;SDS011;13368;52.346;4.678;2023-06-10T07:10:00;2.8;;;1.8;;
25443;SDS011;13368;52.346;4.678;2023-06-10T07:15:00;2.1;;;1.9;;
25443;SDS011;13368;52.346;4.678;2023-06-10T07:20:00;1.6;;;1.5;;
25443;SDS011;13368;52.346;4.678;2023-06-10T07:25:00;4.4;;;1.8;;
25443;SDS011;13368;52.346;4.678;2023-06-10T07:30:00;2.0;;;1.7;;
25443;SDS011;13368;52.346;4.678;2023-06-10T07:35:00;2.5;;;2.1;;
25443;SDS011;13368;52.346;4.678;2023-06-10T07:40:00;3.4;;;2.1;;
25443;SDS011;13368;52.346;4.678;2023-06-10T07:45:00;2.6;;;2.0;;
25443;SDS011;13368;52.346;4.678;2023-06-10T07:50:00;2.6;;;1.6;;
25443;SDS011;13368;52.346;4.678;2023-06-10T07:55:00;3.5;;;2.0;;
25443;SDS011;13368;52.346;4.678;2023-06-10T08:00:00;3.6;;;2.4;;
25443;SDS011;13368;52.346;4.678;2023-06-10T08:05:00;1.6;;;1.5;;
25443;SDS011;13368;52.346;4.678;2023-06-10T08:10:00;2.1;;;1.9;;
25443;SDS011;13368;52.346;4.678;2023-06-10T08:15:00;2.2;;;2.0;;
25443;SDS011;13368;52.346;4.678;2023-06-10T08:20:00;3.5;;;2.3;;
25443;SDS011;13368;52.346;4.678;2023-06-10T08:25:00;3.1;;;1.5;;
25443;SDS011;13368;52.346;4.678;2023-06-10T08:30:00;1.9;;;1.6;;
25443;SDS011;13368;52.346;4.678;2023-06-10T08:35:00;2.1;;;1.5;;
25443;SDS011;13368;52.346;4.678;2023-06-10T08:40:00;8.4;;;2.1;;
25443;SDS011;13368;52.346;4.678;2023-06-10T08:45:00;4.3;;;2.4;;
25443;SDS011;13368;52.346;4.678;2023-06-10T08:50:01;5.6;;;2.6;;
25443;SDS011;13368;52.346;4.678;2023-06-10T08:55:01;3.9;;;2.6;;
25443;SDS011;13368;52.346;4.678;2023-06-10T09:00:00;8.9;;;2.7;;
25443;SDS011;13368;52.346;4.678;2023-06-10T09:05:00;2.4;;;1.9;;
25443;SDS011;13368;52.346;4.678;2023-06-10T09:10:00;4.1;;;2.3;;
25443;SDS011;13368;52.346;4.678;2023-06-10T09:15:00;3.1;;;1.7;;
25443;SDS011;13368;52.346;4.678;2023-06-10T09:20:00;1.7;;;1.6;;
25443;SDS011;13368;52.346;4.678;2023-06-10T09:25:03;3.4;;;2.1;;
25443;SDS011;13368;52.346;4.678;2023-06-10T09:30:00;2.2;;;2.0;;
25443;SDS011;13368;52.346;4.678;2023-06-10T09:35:00;6.5;;;1.7;;
25443;SDS011;13368;52.346;4.678;2023-06-10T09:40:01;2.4;;;1.9;;
25443;SDS011;13368;52.346;4.678;2023-06-10T09:45:00;3.7;;;1.5;;
25443;SDS011;13368;52.346;4.678;2023-06-10T09:50:00;3.2;;;1.6;;
25443;SDS011;13368;52.346;4.678;2023-06-10T09:55:00;2.2;;;1.4;;
25443;SDS011;13368;52.346;4.678;2023-06-10T10:00:02;3.0;;;1.8;;
25443;SDS011;13368;52.346;4.678;2023-06-10T10:05:02;4.0;;;2.4;;
25443;SDS011;13368;52.346;4.678;2023-06-10T10:10:00;2.3;;;1.7;;
25443;SDS011;13368;52.346;4.678;2023-06-10T10:15:00;7.7;;;2.1;;
25443;SDS011;13368;52.346;4.678;2023-06-10T10:20:02;4.1;;;1.8;;
25443;SDS011;13368;52.346;4.678;2023-06-10T10:25:01;5.0;;;2.0;;
25443;SDS011;13368;52.346;4.678;2023-06-10T10:30:00;3.3;;;1.6;;
25443;SDS011;13368;52.346;4.678;2023-06-10T10:35:02;6.0;;;2.0;;
25443;SDS011;13368;52.346;4.678;2023-06-10T10:40:00;4.7;;;1.9;;
25443;SDS011;13368;52.346;4.678;2023-06-10T10:45:00;2.3;;;1.5;;
25443;SDS011;13368;52.346;4.678;2023-06-10T10:50:00;1.9;;;1.2;;
25443;SDS011;13368;52.346;4.678;2023-06-10T10:55:00;2.6;;;1.6;;
25443;SDS011;13368;52.346;4.678;2023-06-10T11:00:00;1.6;;;0.9;;
25443;SDS011;13368;52.346;4.678;2023-06-10T11:05:00;3.7;;;1.8;;
25443;SDS011;13368;52.346;4.678;2023-06-10T11:10:00;1.4;;;1.1;;
25443;SDS011;13368;52.346;4.678;2023-06-10T11:15:00;1.4;;;1.3;;
25443;SDS011;13368;52.346;4.678;2023-06-10T11:20:00;2.1;;;1.7;;
25443;SDS011;13368;52.346;4.678;2023-06-10T11:25:00;3.4;;;1.7;;
25443;SDS011;13368;52.346;4.678;2023-06-10T11:35:00;2.0;;;1.4;;
25443;SDS011;13368;52.346;4.678;2023-06-10T11:40:00;4.1;;;1.6;;
25443;SDS011;13368;52.346;4.678;2023-06-10T11:45:00;1.5;;;1.1;;
25443;SDS011;13368;52.346;4.678;2023-06-10T11:50:00;2.0;;;1.4;;
25443;SDS011;13368;52.346;4.678;2023-06-10T11:55:00;3.2;;;2.2;;
25443;SDS011;13368;52.346;4.678;2023-06-10T12:00:03;5.0;;;2.0;;
25443;SDS011;13368;52.346;4.678;2023-06-10T12:05:09;3.6;;;2.1;;
25443;SDS011;13368;52.346;4.678;2023-06-10T12:10:00;2.6;;;1.8;;
25443;SDS011;13368;52.346;4.678;2023-06-10T12:15:00;3.0;;;1.9;;
25443;SDS011;13368;52.346;4.678;2023-06-10T12:20:00;2.3;;;1.7;;
25443;SDS011;13368;52.346;4.678;2023-06-10T12:25:01;2.1;;;1.6;;
25443;SDS011;13368;52.346;4.678;2023-06-10T12:30:00;4.7;;;2.1;;
25443;SDS011;13368;52.346;4.678;2023-06-10T12:35:02;2.5;;;1.8;;
25443;SDS011;13368;52.346;4.678;2023-06-10T12:40:00;5.3;;;2.2;;
25443;SDS011;13368;52.346;4.678;2023-06-10T12:45:00;2.6;;;1.8;;
25443;SDS011;13368;52.346;4.678;2023-06-10T12:50:00;4.1;;;2.4;;
25443;SDS011;13368;52.346;4.678;2023-06-10T12:55:00;2.7;;;1.7;;
25443;SDS011;13368;52.346;4.678;2023-06-10T13:00:00;3.7;;;1.8;;
25443;SDS011;13368;52.346;4.678;2023-06-10T13:05:00;2.0;;;1.6;;
25443;SDS011;13368;52.346;4.678;2023-06-10T13:10:00;4.0;;;2.1;;
25443;SDS011;13368;52.346;4.678;2023-06-10T13:15:00;3.5;;;1.5;;
25443;SDS011;13368;52.346;4.678;2023-06-10T13:20:00;2.9;;;1.7;;
25443;SDS011;13368;52.346;4.678;2023-06-10T13:25:00;3.3;;;1.7;;
25443;SDS011;13368;52.346;4.678;2023-06-10T13:30:00;unavailable;;;unavailable;;
25443;SDS011;13368;52.346;4.678;2023-06-10T13:35:00;unavailable;;;unavailable;;
25443;SDS011;13368;52.346;4.678;2023-06-10T13:40:00;unavailable;;;unavailable;;
25443;SDS011;13368;52.346;4.678;2023-06-10T13:45:00;unavailable;;;unavailable;;
25443;SDS011;13368;52.346;4.678;2023-06-10T13:50:00;unavailable;;;unavailable;;
25443;SDS011;13368;52.346;4.678;2023-06-10T13:55:00;unavailable;;;unavailable;;
25443;SDS011;13368;52.346;4.678;2023-06-10T14:00:00;unavailable;;;unavailable;;
25443;SDS011;13368;52.346;4.678;2023-06-10T14:05:00;unavailable;;;unavailable;;
25443;SDS011;13368;52.346;4.678;2023-06-10T14:10:00;unavailable;;;unavailable;;
25443;SDS011;13368;52.346;4.678;2023-06-10T14:15:00;unavailable;;;unavailable;;
25443;SDS011;13368;52.346;4.678;2023-06-10T14:20:00;unavailable;;;unavailable;;
25443;SDS011;13368;52.346;4.678;2023-06-10T14:25:00;unavailable;;;unavailable;;
25443;SDS011;13368;52.346;4.678;2023-06-10T14:30:00;unavailable;;;unavailable;;
25443;SDS011;13368;52.346;4.678;2023-06-10T14:35:00;unavailable;;;unavailable;;
25443;SDS011;13368;52.346;4.678;2023-06-10T14:40:00;unavailable;;;unavailable;;
25443;SDS011;13368;52.346;4.678;2023-06-10T14:45:00;unavailable;;;unavailable;;
25443;SDS011;13368;52.346;4.678;2023-06-10T14:50:00;unavailable;;;unavailable;;
25443;SDS011;13368;52.346;4.678;2023-06-10T14:55:00;unavailable;;;unavailable;;
25443;SDS011;13368;52.346;4.678;2023-06-10T15:00:00;unavailable;;;unavailable;;
25443;SDS011;13368;52.346;4.678;2023-06-10T15:05:00;unavailable;;;unavailable;;
25443;SDS011;13368;52.346;4.678;2023-06-10T15:10:00;unavailable;;;unavailable;;
25443;SDS011;13368;52.346;4.678;2023-06-10T15:15:00;unavailable;;;unavailable;;
25443;SDS011;13368;52.346;4.678;2023-06-10T15:20:00;unavailable;;;unavailable;;
25443;SDS011;13368;52.346;4.678;2023-06-10T15:25:00;unavailable;;;unavailable;;
25443;SDS011;13368;52.346;4.678;2023-06-10T15:30:00;unavailable;;;unavailable;;
25443;SDS011;13368;52.346;4.678;2023-06-10T15:35:00;unavailable;;;unavailable;;
25443;SDS011;13368;52.346;4.678;2023-06-10T15:40:00;2.6;;;1.5;;
25443;SDS011;13368;52.346;4.678;2023-06-10T15:45:00;5.5;;;2.3;;
25443;SDS011;13368;52.346;4.678;2023-06-10T15:50:00;9.2;;;6.1;;
25443;SDS011;13368;52.346;4.678;2023-06-10T15:55:00;13.5;;;5.1;;
25443;SDS011;13368;52.346;4.678;2023-06-10T16:00:00;10.6;;;3.9;;
25443;SDS011;13368;52.346;4.678;2023-06-10T16:05:00;5.3;;;2.6;;
25443;SDS011;13368;52.346;4.678;2023-06-10T16:10:00;6.5;;;3.9;;
25443;SDS011;13368;52.346;4.678;2023-06-10T16:15:00;4.7;;;3.3;;
25443;SDS011;13368;52.346;4.678;2023-06-10T16:20:00;3.7;;;2.4;;
25443;SDS011;13368;52.346;4.678;2023-06-10T16:25:00;7.0;;;2.8;;
25443;SDS011;13368;52.346;4.678;2023-06-10T16:30:00;15.1;;;8.1;;
25443;SDS011;13368;52.346;4.678;2023-06-10T16:35:00;15.6;;;9.0;;
25443;SDS011;13368;52.346;4.678;2023-06-10T16:40:00;15.1;;;8.6;;
25443;SDS011;13368;52.346;4.678;2023-06-10T16:45:00;20.5;;;13.2;;
25443;SDS011;13368;52.346;4.678;2023-06-10T16:50:00;31.2;;;18.2;;
25443;SDS011;13368;52.346;4.678;2023-06-10T16:55:00;44.7;;;22.0;;
25443;SDS011;13368;52.346;4.678;2023-06-10T17:00:00;123.7;;;64.5;;
25443;SDS011;13368;52.346;4.678;2023-06-10T17:05:00;107.5;;;63.0;;
25443;SDS011;13368;52.346;4.678;2023-06-10T17:10:00;129.2;;;65.4;;
25443;SDS011;13368;52.346;4.678;2023-06-10T17:15:00;18.5;;;11.1;;
25443;SDS011;13368;52.346;4.678;2023-06-10T17:20:00;6.7;;;3.2;;
25443;SDS011;13368;52.346;4.678;2023-06-10T17:25:00;4.3;;;2.6;;
25443;SDS011;13368;52.346;4.678;2023-06-10T17:30:00;5.9;;;3.5;;
25443;SDS011;13368;52.346;4.678;2023-06-10T17:35:00;9.3;;;5.1;;
25443;SDS011;13368;52.346;4.678;2023-06-10T17:40:00;7.8;;;4.0;;
25443;SDS011;13368;52.346;4.678;2023-06-10T17:45:00;11.8;;;3.4;;
25443;SDS011;13368;52.346;4.678;2023-06-10T17:50:00;4.5;;;2.3;;
25443;SDS011;13368;52.346;4.678;2023-06-10T17:55:00;4.2;;;2.2;;
25443;SDS011;13368;52.346;4.678;2023-06-10T18:00:00;1.9;;;1.4;;
25443;SDS011;13368;52.346;4.678;2023-06-10T18:05:00;2.0;;;1.5;;
25443;SDS011;13368;52.346;4.678;2023-06-10T18:10:00;5.3;;;2.3;;
25443;SDS011;13368;52.346;4.678;2023-06-10T18:15:00;2.2;;;1.5;;
25443;SDS011;13368;52.346;4.678;2023-06-10T18:20:00;1.5;;;1.1;;
25443;SDS011;13368;52.346;4.678;2023-06-10T18:25:00;2.2;;;1.5;;
25443;SDS011;13368;52.346;4.678;2023-06-10T18:30:00;2.0;;;1.1;;
25443;SDS011;13368;52.346;4.678;2023-06-10T18:35:00;2.3;;;1.6;;
25443;SDS011;13368;52.346;4.678;2023-06-10T18:40:00;1.3;;;1.2;;
25443;SDS011;13368;52.346;4.678;2023-06-10T18:45:00;2.7;;;1.9;;
25443;SDS011;13368;52.346;4.678;2023-06-10T18:50:00;2.1;;;1.1;;
25443;SDS011;13368;52.346;4.678;2023-06-10T18:55:00;1.8;;;1.5;;
25443;SDS011;13368;52.346;4.678;2023-06-10T19:00:00;2.3;;;1.3;;
25443;SDS011;13368;52.346;4.678;2023-06-10T19:05:00;2.4;;;1.3;;
25443;SDS011;13368;52.346;4.678;2023-06-10T19:10:00;1.8;;;1.6;;
25443;SDS011;13368;52.346;4.678;2023-06-10T19:15:00;1.9;;;1.5;;
25443;SDS011;13368;52.346;4.678;2023-06-10T19:20:00;2.8;;;1.4;;
25443;SDS011;13368;52.346;4.678;2023-06-10T19:25:00;2.9;;;1.8;;
25443;SDS011;13368;52.346;4.678;2023-06-10T19:30:00;3.5;;;1.4;;
25443;SDS011;13368;52.346;4.678;2023-06-10T19:35:00;1.5;;;1.4;;
25443;SDS011;13368;52.346;4.678;2023-06-10T19:40:00;4.5;;;1.6;;
25443;SDS011;13368;52.346;4.678;2023-06-10T19:45:00;2.3;;;1.7;;
25443;SDS011;13368;52.346;4.678;2023-06-10T19:50:00;2.8;;;1.9;;
25443;SDS011;13368;52.346;4.678;2023-06-10T19:55:00;2.0;;;1.5;;
25443;SDS011;13368;52.346;4.678;2023-06-10T20:00:00;1.3;;;1.1;;
25443;SDS011;13368;52.346;4.678;2023-06-10T20:05:00;2.1;;;1.9;;
25443;SDS011;13368;52.346;4.678;2023-06-10T20:10:00;2.5;;;1.6;;
25443;SDS011;13368;52.346;4.678;2023-06-10T20:15:00;1.3;;;1.2;;
25443;SDS011;13368;52.346;4.678;2023-06-10T20:20:00;3.8;;;2.6;;
25443;SDS011;13368;52.346;4.678;2023-06-10T20:25:00;2.2;;;1.8;;
25443;SDS011;13368;52.346;4.678;2023-06-10T20:30:00;4.1;;;1.8;;
25443;SDS011;13368;52.346;4.678;2023-06-10T20:35:00;3.5;;;2.1;;
25443;SDS011;13368;52.346;4.678;2023-06-10T20:40:00;4.0;;;2.3;;
25443;SDS011;13368;52.346;4.678;2023-06-10T20:45:00;3.8;;;2.3;;
25443;SDS011;13368;52.346;4.678;2023-06-10T20:50:00;4.2;;;2.2;;
25443;SDS011;13368;52.346;4.678;2023-06-10T20:55:00;2.8;;;2.2;;
25443;SDS011;13368;52.346;4.678;2023-06-10T21:00:00;7.4;;;2.8;;
25443;SDS011;13368;52.346;4.678;2023-06-10T21:05:00;3.3;;;2.5;;
25443;SDS011;13368;52.346;4.678;2023-06-10T21:10:00;2.4;;;2.1;;
25443;SDS011;13368;52.346;4.678;2023-06-10T21:15:00;2.9;;;2.0;;
25443;SDS011;13368;52.346;4.678;2023-06-10T21:20:00;4.5;;;2.5;;
25443;SDS011;13368;52.346;4.678;2023-06-10T21:25:00;2.0;;;1.8;;
25443;SDS011;13368;52.346;4.678;2023-06-10T21:30:00;5.3;;;2.9;;
25443;SDS011;13368;52.346;4.678;2023-06-10T21:35:00;2.6;;;1.7;;
25443;SDS011;13368;52.346;4.678;2023-06-10T21:40:00;2.2;;;1.6;;
25443;SDS011;13368;52.346;4.678;2023-06-10T21:45:00;3.8;;;2.8;;
25443;SDS011;13368;52.346;4.678;2023-06-10T21:50:00;3.7;;;2.2;;
25443;SDS011;13368;52.346;4.678;2023-06-10T21:55:00;2.0;;;1.4;;
25443;SDS011;13368;52.346;4.678;2023-06-10T22:00:00;4.3;;;2.2;;
25443;SDS011;13368;52.346;4.678;2023-06-10T22:05:00;4.0;;;2.1;;
25443;SDS011;13368;52.346;4.678;2023-06-10T22:10:00;2.7;;;1.9;;
25443;SDS011;13368;52.346;4.678;2023-06-10T22:15:00;12.0;;;2.1;;
25443;SDS011;13368;52.346;4.678;2023-06-10T22:20:00;4.5;;;1.9;;
25443;SDS011;13368;52.346;4.678;2023-06-10T22:25:00;1.7;;;1.6;;
25443;SDS011;13368;52.346;4.678;2023-06-10T22:30:00;1.7;;;1.6;;
25443;SDS011;13368;52.346;4.678;2023-06-10T22:35:00;4.4;;;2.2;;
25443;SDS011;13368;52.346;4.678;2023-06-10T22:40:00;3.6;;;2.0;;
25443;SDS011;13368;52.346;4.678;2023-06-10T22:45:00;2.4;;;1.8;;
25443;SDS011;13368;52.346;4.678;2023-06-10T22:50:00;4.5;;;2.2;;
25443;SDS011;13368;52.346;4.678;2023-06-10T22:55:00;2.2;;;1.5;;
25443;SDS011;13368;52.346;4.678;2023-06-10T23:00:00;2.6;;;1.5;;
25443;SDS011;13368;52.346;4.678;2023-06-10T23:05:00;1.8;;;1.7;;
25443;SDS011;13368;52.346;4.678;2023-06-10T23:10:00;1.6;;;1.5;;
25443;SDS011;13368;52.346;4.678;2023-06-10T23:15:00;2.3;;;1.7;;
25443;SDS011;13368;52.346;4.678;2023-06-10T23:20:00;2.4;;;1.4;;
25443;SDS011;13368;52.346;4.678;2023-06-10T23:25:00;2.9;;;2.0;;
25443;SDS011;13368;52.346;4.678;2023-06-10T23:30:00;3.2;;;2.0;;
25443;SDS011;13368;52.346;4.678;2023-06-10T23:35:00;5.3;;;1.7;;
25443;SDS011;13368;52.346;4.678;2023-06-10T23:40:00;5.3;;;1.7;;
25443;SDS011;13368;52.346;4.678;2023-06-10T23:45:00;2.9;;;1.7;;
25443;SDS011;13368;52.346;4.678;2023-06-10T23:50:00;1.7;;;1.6;;
25443;SDS011;13368;52.346;4.678;2023-06-10T23:55:00;1.7;;;1.5;;
